| Date | Time | Temp. (oF) | Dew Point (oF) | Rel. Hum. (%) | Press. (in.) | Wind Dir. | Wind Speed (mph) | Hourly Rainfall (in.) |
|
|---|---|---|---|---|---|---|---|---|---|
| 1 | 09/22 | 00:00 | 74 | 73 | 99 | 30.02 | NNE | 0 | 0.00 |
| 2 | 09/21 | 23:00 | 74 | 73 | 99 | 30.02 | NE | 2 | 0.00 |
| 3 | 09/21 | 22:00 | 74 | 73 | 99 | 30.02 | ESE | 1 | 0.00 |
| 4 | 09/21 | 21:00 | 75 | 74 | 98 | 30.01 | E | 3 | 0.01 |
| 5 | 09/21 | 20:00 | 75 | 73 | 96 | 30.00 | SSE | 0 | 0.00 |
| 6 | 09/21 | 19:00 | 77 | 74 | 91 | 29.98 | NNE | 3 | 0.19 |
| 7 | 09/21 | 18:00 | 78 | 73 | 86 | 29.97 | E | 2 | 0.00 |
| 8 | 09/21 | 17:00 | 80 | 72 | 77 | 29.96 | W | 2 | 0.00 |
| 9 | 09/21 | 16:00 | 82 | 70 | 68 | 29.95 | WSW | 2 | 0.00 |
| 10 | 09/21 | 15:00 | 82 | 71 | 70 | 29.96 | NNW | 4 | 0.00 |
| 11 | 09/21 | 14:00 | 82 | 70 | 69 | 29.97 | SW | 3 | 0.00 |
| 12 | 09/21 | 13:00 | 82 | 69 | 67 | 29.97 | SSE | 4 | 0.00 |
| 13 | 09/21 | 12:00 | 81 | 69 | 69 | 29.98 | SSE | 5 | 0.00 |
| 14 | 09/21 | 11:00 | 80 | 70 | 73 | 29.99 | SW | 10 | 0.00 |
| 15 | 09/21 | 10:00 | 76 | 68 | 78 | 30.00 | S | 7 | 0.00 |
| 16 | 09/21 | 09:00 | 72 | 68 | 88 | 29.99 | S | 6 | 0.00 |
| 17 | 09/21 | 08:00 | 70 | 68 | 94 | 29.99 | SSW | 5 | 0.00 |
| 18 | 09/21 | 07:00 | 69 | 67 | 94 | 29.99 | SW | 3 | 0.00 |
| 19 | 09/21 | 06:00 | 70 | 68 | 95 | 29.98 | S | 5 | 0.00 |
| 20 | 09/21 | 05:00 | 70 | 69 | 97 | 29.97 | SSE | 4 | 0.00 |
| 21 | 09/21 | 04:00 | 70 | 69 | 98 | 29.96 | S | 5 | 0.00 |
| 22 | 09/21 | 03:00 | 71 | 70 | 97 | 29.97 | S | 6 | 0.00 |
| 23 | 09/21 | 02:00 | 71 | 69 | 96 | 29.96 | S | 2 | 0.00 |
| 24 | 09/21 | 01:00 | 72 | 70 | 95 | 29.97 | SSE | 7 | 0.00 |